Time;durP1;ratioP1;P1;durP2;ratioP2;P2;SDS_P1;SDS_P2;PMS_P1;PMS_P2;Temp;Humidity;BMP_temperature;BMP_pressure;BME280_temperature;BME280_humidity;BME280_pressure;Samples;Min_cycle;Max_cycle;Signal;HPM_P1;HPM_P2
2022/04/26 03:36:40;;;;;;;64.53;10.33;;;;;;;;;;4957757;28;20217;-73
2022/04/26 03:39:07;;;;;;;145.53;22.60;;;;;;;;;;4958379;28;20273;-73
2022/04/26 03:41:33;;;;;;;78.77;11.63;;;;;;;;;;4956478;28;20226;-73
2022/04/26 03:43:59;;;;;;;112.70;16.93;;;;;;;;;;4957176;28;20767;-73
2022/04/26 03:46:25;;;;;;;59.90;9.07;;;;;;;;;;4955829;28;20635;-73
2022/04/26 03:48:51;;;;;;;85.93;12.50;;;;;;;;;;4957384;28;20237;-73
2022/04/26 03:51:17;;;;;;;79.90;12.17;;;;;;;;;;4957853;28;20202;-73
2022/04/26 03:53:43;;;;;;;104.00;15.23;;;;;;;;;;4953901;28;20280;-73
2022/04/26 03:56:09;;;;;;;132.20;20.13;;;;;;;;;;4945355;28;20272;-73
2022/04/26 03:58:35;;;;;;;61.20;9.23;;;;;;;;;;4957476;28;20226;-73
2022/04/26 04:01:01;;;;;;;106.37;15.80;;;;;;;;;;4955931;28;20222;-73
2022/04/26 04:03:27;;;;;;;69.67;10.30;;;;;;;;;;4957101;28;20600;-72
2022/04/26 04:05:54;;;;;;;106.47;15.40;;;;;;;;;;4960872;28;20196;-74
2022/04/26 04:08:19;;;;;;;68.53;10.13;;;;;;;;;;4959663;28;20261;-73
2022/04/26 04:10:46;;;;;;;104.03;14.93;;;;;;;;;;4957631;28;20268;-73
2022/04/26 04:13:12;;;;;;;135.73;19.47;;;;;;;;;;4936332;28;21582;-73
2022/04/26 04:15:38;;;;;;;71.63;11.07;;;;;;;;;;4957300;28;20289;-72
2022/04/26 04:19:17;;;;;;;114.10;16.70;;;;;;;;;;4957655;28;20302;-73
2022/04/26 04:20:50;;;;;;;127.87;18.40;;;;;;;;;;4958218;28;20221;-73
2022/04/26 04:23:15;;;;;;;135.87;19.13;;;;;;;;;;4935990;28;21282;-73
2022/04/26 04:25:41;;;;;;;73.00;10.93;;;;;;;;;;4960278;28;20296;-73
2022/04/26 04:28:07;;;;;;;116.37;17.97;;;;;;;;;;4957818;28;20241;-73
2022/04/26 04:30:33;;;;;;;96.87;14.50;;;;;;;;;;4953707;28;20289;-73
2022/04/26 04:32:59;;;;;;;137.13;20.90;;;;;;;;;;4952914;28;20818;-73
2022/04/26 04:35:25;;;;;;;107.83;15.60;;;;;;;;;;4937681;28;20221;-73
2022/04/26 04:37:51;;;;;;;73.90;11.13;;;;;;;;;;4957667;28;20211;-73
2022/04/26 04:40:17;;;;;;;55.73;8.53;;;;;;;;;;4961317;28;20225;-73
2022/04/26 04:42:43;;;;;;;108.87;15.90;;;;;;;;;;4958502;28;20240;-73
2022/04/26 04:45:09;;;;;;;109.73;15.97;;;;;;;;;;4957604;28;20178;-73
2022/04/26 04:47:35;;;;;;;51.50;7.97;;;;;;;;;;4940285;28;20756;-73
2022/04/26 04:50:01;;;;;;;129.50;19.07;;;;;;;;;;4957565;28;20274;-74
2022/04/26 04:52:27;;;;;;;75.13;11.07;;;;;;;;;;4951329;28;20236;-73
2022/04/26 04:54:53;;;;;;;60.43;9.60;;;;;;;;;;4956101;28;20215;-73
2022/04/26 04:57:19;;;;;;;83.37;12.30;;;;;;;;;;4958135;28;20202;-72
2022/04/26 04:59:45;;;;;;;113.73;16.47;;;;;;;;;;4939328;28;20217;-73
2022/04/26 05:02:11;;;;;;;115.17;16.50;;;;;;;;;;4953775;28;20222;-73
2022/04/26 05:04:37;;;;;;;74.77;11.50;;;;;;;;;;4958966;28;20210;-73
2022/04/26 05:07:03;;;;;;;81.27;12.23;;;;;;;;;;4961649;28;20349;-73
2022/04/26 05:09:29;;;;;;;67.27;10.30;;;;;;;;;;4941788;28;20206;-73
2022/04/26 05:11:55;;;;;;;153.40;22.40;;;;;;;;;;4956006;28;20206;-73
2022/04/26 05:14:21;;;;;;;102.37;15.30;;;;;;;;;;4953906;28;20214;-73
2022/04/26 05:16:47;;;;;;;85.80;12.53;;;;;;;;;;4953716;28;20206;-73
2022/04/26 05:19:13;;;;;;;85.07;12.83;;;;;;;;;;4952916;28;20214;-72
2022/04/26 05:21:39;;;;;;;81.33;12.50;;;;;;;;;;4957099;28;20433;-73
2022/04/26 05:26:50;;;;;;;104.33;15.63;;;;;;;;;;4963474;28;20216;-73
2022/04/26 05:29:16;;;;;;;76.63;11.73;;;;;;;;;;4942171;28;20206;-70
2022/04/26 05:31:42;;;;;;;118.83;17.17;;;;;;;;;;4938020;28;20218;-71
2022/04/26 05:34:07;;;;;;;120.93;18.07;;;;;;;;;;4954990;28;20218;-70
2022/04/26 05:36:33;;;;;;;118.47;18.37;;;;;;;;;;4938068;28;20211;-70
2022/04/26 05:39:02;;;;;;;123.47;19.07;;;;;;;;;;4958182;28;20210;-70
2022/04/26 05:41:28;;;;;;;78.17;11.67;;;;;;;;;;4940289;28;20224;-70
2022/04/26 05:43:55;;;;;;;114.97;16.80;;;;;;;;;;4947525;28;20222;-70
2022/04/26 05:46:21;;;;;;;76.23;11.67;;;;;;;;;;4949226;28;20214;-71
2022/04/26 05:48:47;;;;;;;93.63;13.97;;;;;;;;;;4951819;28;20238;-70
2022/04/26 05:51:13;;;;;;;120.17;17.73;;;;;;;;;;4954373;28;20245;-70
2022/04/26 05:53:39;;;;;;;68.67;10.67;;;;;;;;;;4954296;28;20280;-69
2022/04/26 05:56:05;;;;;;;100.30;15.20;;;;;;;;;;4954019;28;20219;-69
2022/04/26 05:58:31;;;;;;;115.70;17.03;;;;;;;;;;4953945;28;20222;-69
2022/04/26 06:00:57;;;;;;;122.43;19.63;;;;;;;;;;4950859;28;20321;-70
2022/04/26 06:03:24;;;;;;;112.77;16.80;;;;;;;;;;4949892;28;20277;-70
2022/04/26 06:05:50;;;;;;;150.13;21.60;;;;;;;;;;4934364;28;20217;-70
2022/04/26 06:08:16;;;;;;;96.80;14.93;;;;;;;;;;4955218;28;20729;-70
2022/04/26 06:10:42;;;;;;;128.33;19.20;;;;;;;;;;4950111;28;20242;-69
2022/04/26 06:13:08;;;;;;;119.43;18.50;;;;;;;;;;4959217;28;20362;-70
2022/04/26 06:15:34;;;;;;;96.17;14.80;;;;;;;;;;4957526;28;20657;-70
2022/04/26 06:18:00;;;;;;;113.23;17.77;;;;;;;;;;4956382;28;20194;-65
2022/04/26 06:20:27;;;;;;;59.23;9.37;;;;;;;;;;4954109;28;20252;-63
2022/04/26 06:22:53;;;;;;;131.70;19.33;;;;;;;;;;4955457;28;20236;-65
2022/04/26 06:25:19;;;;;;;53.57;8.57;;;;;;;;;;4966084;28;20704;-64
2022/04/26 06:27:47;;;;;;;57.03;9.60;;;;;;;;;;4958805;28;20216;-63
2022/04/26 06:30:14;;;;;;;81.77;12.17;;;;;;;;;;4947483;28;21288;-59
2022/04/26 06:32:42;;;;;;;127.37;18.97;;;;;;;;;;4955102;28;20234;-63
2022/04/26 06:35:08;;;;;;;146.13;22.17;;;;;;;;;;4946446;28;20242;-63
2022/04/26 06:37:34;;;;;;;67.37;10.23;;;;;;;;;;4956992;28;20296;-63
2022/04/26 06:40:00;;;;;;;99.00;16.20;;;;;;;;;;4956764;28;20297;-63
2022/04/26 06:42:26;;;;;;;85.23;13.13;;;;;;;;;;4963642;28;20723;-63
2022/04/26 06:44:52;;;;;;;63.87;10.20;;;;;;;;;;4957716;28;20302;-63
2022/04/26 06:47:18;;;;;;;125.47;18.83;;;;;;;;;;4958451;28;20218;-67
2022/04/26 06:49:44;;;;;;;143.73;21.33;;;;;;;;;;4960271;28;20210;-63
2022/04/26 06:52:10;;;;;;;176.37;26.70;;;;;;;;;;4939254;28;20238;-60
2022/04/26 06:54:36;;;;;;;303.67;49.17;;;;;;;;;;4951530;28;20234;-63
2022/04/26 06:57:02;;;;;;;200.63;29.37;;;;;;;;;;4936845;28;20190;-61
2022/04/26 06:59:28;;;;;;;85.63;13.23;;;;;;;;;;4942212;28;20214;-63
2022/04/26 07:01:54;;;;;;;120.77;18.47;;;;;;;;;;4942747;28;20473;-62
2022/04/26 07:04:20;;;;;;;92.53;14.17;;;;;;;;;;4937625;28;20245;-63
2022/04/26 07:06:47;;;;;;;118.50;17.70;;;;;;;;;;4957423;28;20282;-63
2022/04/26 07:09:13;;;;;;;153.17;22.67;;;;;;;;;;4943674;28;20672;-59
2022/04/26 07:11:39;;;;;;;70.27;11.30;;;;;;;;;;4941504;28;20277;-62
2022/04/26 07:14:05;;;;;;;116.50;18.30;;;;;;;;;;4959782;28;20222;-62
2022/04/26 07:16:31;;;;;;;63.73;10.63;;;;;;;;;;4958680;28;20568;-63
2022/04/26 07:18:57;;;;;;;170.80;29.17;;;;;;;;;;4950988;28;20276;-64
2022/04/26 07:21:23;;;;;;;63.37;11.10;;;;;;;;;;4951279;28;20206;-66
2022/04/26 07:23:49;;;;;;;118.63;19.23;;;;;;;;;;4964799;28;20242;-66
2022/04/26 07:26:15;;;;;;;192.27;29.70;;;;;;;;;;4936644;28;20312;-60
2022/04/26 07:28:41;;;;;;;63.13;10.57;;;;;;;;;;4942296;28;20225;-67
2022/04/26 07:31:08;;;;;;;180.67;31.23;;;;;;;;;;4950310;28;20306;-64
2022/04/26 07:36:22;;;;;;;183.70;29.70;;;;;;;;;;4934793;28;20197;-64
2022/04/26 07:38:48;;;;;;;109.60;18.37;;;;;;;;;;4943257;28;20221;-66
2022/04/26 07:41:13;;;;;;;155.77;25.10;;;;;;;;;;4920311;28;20364;-65
2022/04/26 07:43:41;;;;;;;121.30;19.33;;;;;;;;;;4945555;28;20230;-65
2022/04/26 07:46:07;;;;;;;205.43;35.60;;;;;;;;;;4946241;28;20226;-65
2022/04/26 07:48:34;;;;;;;134.53;22.10;;;;;;;;;;4924869;28;20225;-66
2022/04/26 07:51:00;;;;;;;181.20;29.57;;;;;;;;;;4936246;28;20234;-66
2022/04/26 07:53:27;;;;;;;134.93;20.97;;;;;;;;;;4937670;28;20313;-66
2022/04/26 07:55:53;;;;;;;115.47;18.23;;;;;;;;;;4956945;28;20226;-65
2022/04/26 07:58:19;;;;;;;129.67;20.50;;;;;;;;;;4936233;28;20225;-64
2022/04/26 08:00:45;;;;;;;132.80;21.00;;;;;;;;;;4944889;28;20221;-65
2022/04/26 08:03:11;;;;;;;64.27;10.43;;;;;;;;;;4949752;28;20229;-65
2022/04/26 08:05:37;;;;;;;160.63;25.27;;;;;;;;;;4953622;28;20253;-65
2022/04/26 08:08:03;;;;;;;224.57;35.07;;;;;;;;;;4922992;28;20234;-64
2022/04/26 08:10:28;;;;;;;82.97;13.53;;;;;;;;;;4956533;28;21014;-65
2022/04/26 08:12:55;;;;;;;65.10;10.70;;;;;;;;;;4955588;28;20225;-66
2022/04/26 08:15:20;;;;;;;59.87;10.23;;;;;;;;;;4961499;28;20189;-66
2022/04/26 08:17:48;;;;;;;80.73;12.93;;;;;;;;;;4956510;28;20210;-66
2022/04/26 08:20:14;;;;;;;170.20;26.70;;;;;;;;;;4947774;28;20284;-67
2022/04/26 08:22:40;;;;;;;292.93;44.57;;;;;;;;;;4943415;28;20225;-67
2022/04/26 08:27:51;;;;;;;173.73;29.60;;;;;;;;;;4942900;28;20232;-65
2022/04/26 08:30:17;;;;;;;109.03;17.50;;;;;;;;;;4949378;28;20201;-65
2022/04/26 08:32:45;;;;;;;48.77;8.50;;;;;;;;;;4954798;28;20218;-64
2022/04/26 08:35:12;;;;;;;110.00;18.17;;;;;;;;;;4957595;28;20236;-65
2022/04/26 08:37:39;;;;;;;75.77;13.37;;;;;;;;;;4953072;28;20210;-64
2022/04/26 08:40:06;;;;;;;277.87;51.60;;;;;;;;;;4950154;28;20208;-65
2022/04/26 08:42:39;;;;;;;86.03;15.77;;;;;;;;;;4959246;28;20678;-65
2022/04/26 08:45:06;;;;;;;143.57;25.60;;;;;;;;;;4947937;28;20268;-64
2022/04/26 08:53:03;;;;;;;193.00;34.53;;;;;;;;;;4951256;28;20216;-65
2022/04/26 08:55:31;;;;;;;131.87;23.47;;;;;;;;;;4939911;28;20210;-65
2022/04/26 08:57:57;;;;;;;141.97;25.20;;;;;;;;;;4952261;28;20219;-65
2022/04/26 09:00:23;;;;;;;67.23;11.60;;;;;;;;;;4956591;28;20214;-65
2022/04/26 09:03:07;;;;;;;82.47;14.95;;;;;;;;;;4951166;28;20234;-65
2022/04/26 09:05:33;;;;;;;102.13;16.87;;;;;;;;;;4956390;28;20749;-65
2022/04/26 09:07:59;;;;;;;160.97;29.50;;;;;;;;;;4956427;28;20816;-66
2022/04/26 09:10:26;;;;;;;85.47;13.87;;;;;;;;;;4958753;28;20277;-67
2022/04/26 09:13:09;;;;;;;105.53;18.63;;;;;;;;;;4934559;28;20218;-66
2022/04/26 09:15:36;;;;;;;106.47;18.17;;;;;;;;;;4960541;28;20587;-66
2022/04/26 09:18:15;;;;;;;135.10;23.27;;;;;;;;;;4953555;28;20186;-66
2022/04/26 09:20:42;;;;;;;238.17;38.83;;;;;;;;;;4940617;28;20229;-66
2022/04/26 09:23:15;;;;;;;133.57;22.13;;;;;;;;;;4954129;28;20228;-66
2022/04/26 09:25:41;;;;;;;110.97;18.70;;;;;;;;;;4947455;28;20202;-66
2022/04/26 09:28:07;;;;;;;146.50;24.08;;;;;;;;;;4955740;28;20241;-65
2022/04/26 09:30:34;;;;;;;75.90;13.50;;;;;;;;;;4962619;28;20249;-66
2022/04/26 09:33:00;;;;;;;161.48;31.65;;;;;;;;;;4959588;28;20203;-65
2022/04/26 09:35:32;;;;;;;96.63;17.45;;;;;;;;;;4952196;28;20719;-66
2022/04/26 09:37:59;;;;;;;144.02;25.55;;;;;;;;;;4956156;28;20233;-65
2022/04/26 09:40:28;;;;;;;89.43;15.83;;;;;;;;;;4956933;28;20731;-66
2022/04/26 09:42:54;;;;;;;110.32;20.08;;;;;;;;;;4948459;28;20917;-64
2022/04/26 09:45:20;;;;;;;111.72;20.55;;;;;;;;;;4958076;28;20186;-64
2022/04/26 09:47:47;;;;;;;71.45;13.82;;;;;;;;;;4960922;28;20224;-66
2022/04/26 09:50:14;;;;;;;95.18;18.35;;;;;;;;;;4965711;28;20224;-66
2022/04/26 09:52:40;;;;;;;136.38;25.52;;;;;;;;;;4956853;28;20992;-67
2022/04/26 09:55:06;;;;;;;177.00;32.95;;;;;;;;;;4955624;28;20215;-66
2022/04/26 09:57:33;;;;;;;81.32;15.65;;;;;;;;;;4956076;28;20245;-66
2022/04/26 10:00:04;;;;;;;105.55;20.00;;;;;;;;;;4963271;28;20183;-66
2022/04/26 10:02:33;;;;;;;110.07;21.55;;;;;;;;;;4954672;28;20357;-66
2022/04/26 10:05:02;;;;;;;215.93;44.20;;;;;;;;;;4933994;28;20222;-67
2022/04/26 10:07:28;;;;;;;112.90;21.10;;;;;;;;;;4949003;28;20226;-66
2022/04/26 10:09:54;;;;;;;142.52;26.85;;;;;;;;;;4951438;28;20222;-66
2022/04/26 10:12:21;;;;;;;125.63;25.20;;;;;;;;;;4945164;28;20206;-66
2022/04/26 10:14:48;;;;;;;162.90;35.78;;;;;;;;;;4946778;28;20193;-66
2022/04/26 10:17:19;;;;;;;125.97;26.80;;;;;;;;;;4949407;28;20301;-66
2022/04/26 10:19:45;;;;;;;104.88;22.17;;;;;;;;;;4959322;28;20242;-70
2022/04/26 10:22:14;;;;;;;134.65;27.83;;;;;;;;;;4950964;28;20662;-71
2022/04/26 10:24:40;;;;;;;168.40;33.80;;;;;;;;;;4948258;28;20411;-66
2022/04/26 10:27:27;;;;;;;192.93;40.20;;;;;;;;;;4952337;28;20194;-66
2022/04/26 10:29:53;;;;;;;110.38;23.15;;;;;;;;;;4946646;28;20216;-66
2022/04/26 10:32:38;;;;;;;165.00;34.40;;;;;;;;;;4945897;28;20221;-66
2022/04/26 10:35:23;;;;;;;219.20;47.35;;;;;;;;;;4947549;28;20779;-66
2022/04/26 10:38:09;;;;;;;63.30;13.13;;;;;;;;;;4950618;28;20802;-66
2022/04/26 10:41:06;;;;;;;99.50;20.17;;;;;;;;;;4936349;28;21350;-65
2022/04/26 10:43:32;;;;;;;154.40;31.10;;;;;;;;;;4949294;28;20292;-64
2022/04/26 10:46:15;;;;;;;206.30;46.15;;;;;;;;;;4953048;28;20214;-63
2022/04/26 10:48:41;;;;;;;183.85;38.92;;;;;;;;;;4945266;28;20274;-64
2022/04/26 10:51:34;;;;;;;182.05;41.20;;;;;;;;;;4950989;28;20210;-64
2022/04/26 10:54:00;;;;;;;205.65;47.78;;;;;;;;;;4949687;28;20225;-64
2022/04/26 10:56:26;;;;;;;100.18;24.17;;;;;;;;;;4958718;28;20817;-65
2022/04/26 10:58:52;;;;;;;113.70;28.85;;;;;;;;;;4951035;28;20210;-65
2022/04/26 11:01:18;;;;;;;79.28;19.30;;;;;;;;;;4951389;28;21074;-68
2022/04/26 11:03:51;;;;;;;131.45;31.60;;;;;;;;;;4936206;28;20219;-64
2022/04/26 11:06:31;;;;;;;102.93;26.42;;;;;;;;;;4949654;28;20269;-68
2022/04/26 11:09:10;;;;;;;156.77;40.65;;;;;;;;;;4953005;28;20234;-64
2022/04/26 11:11:52;;;;;;;101.97;26.20;;;;;;;;;;4954413;28;20225;-65
2022/04/26 11:14:19;;;;;;;267.17;101.90;;;;;;;;;;4947554;28;21873;-65
2022/04/26 11:17:02;;;;;;;172.15;119.95;;;;;;;;;;4952864;28;20219;-64
2022/04/26 11:19:32;;;;;;;192.05;129.07;;;;;;;;;;4956678;28;20928;-64
2022/04/26 11:22:16;;;;;;;263.85;161.60;;;;;;;;;;4952302;28;20746;-68
2022/04/26 11:30:23;;;;;;;100.90;83.78;;;;;;;;;;4961356;28;20819;-64
2022/04/26 11:32:49;;;;;;;173.95;106.38;;;;;;;;;;4954481;28;20692;-65
2022/04/26 11:35:15;;;;;;;140.25;90.85;;;;;;;;;;4956328;28;20214;-70
2022/04/26 11:37:44;;;;;;;153.05;105.57;;;;;;;;;;4953729;28;20695;-70
2022/04/26 11:40:10;;;;;;;290.08;168.65;;;;;;;;;;4957838;28;20761;-71
2022/04/26 11:42:37;;;;;;;319.40;176.93;;;;;;;;;;4954020;28;20190;-65
2022/04/26 11:45:02;;;;;;;318.60;171.80;;;;;;;;;;4956723;28;20556;-65
2022/04/26 11:47:51;;;;;;;294.70;163.10;;;;;;;;;;4953670;28;20233;-65
2022/04/26 11:50:23;;;;;;;387.00;207.43;;;;;;;;;;4958133;28;20747;-65
2022/04/26 11:52:49;;;;;;;342.52;182.88;;;;;;;;;;4952012;28;20591;-65
2022/04/26 11:55:38;;;;;;;290.25;166.90;;;;;;;;;;4954501;28;20787;-65
2022/04/26 11:58:14;;;;;;;332.98;196.48;;;;;;;;;;4949528;28;20217;-65
2022/04/26 12:00:52;;;;;;;292.77;173.93;;;;;;;;;;4946812;28;20229;-66
2022/04/26 12:03:19;;;;;;;434.42;242.00;;;;;;;;;;4954139;28;20235;-65
2022/04/26 12:05:47;;;;;;;373.30;207.77;;;;;;;;;;4957305;28;20230;-65
2022/04/26 12:08:13;;;;;;;326.90;186.48;;;;;;;;;;4931485;28;20307;-65
2022/04/26 12:10:39;;;;;;;319.70;188.35;;;;;;;;;;4957165;28;21503;-64
2022/04/26 12:13:06;;;;;;;335.38;187.65;;;;;;;;;;4955719;28;20206;-65
2022/04/26 12:15:38;;;;;;;321.13;190.13;;;;;;;;;;4952769;28;20187;-64
2022/04/26 12:18:13;;;;;;;450.52;241.25;;;;;;;;;;4951434;28;20286;-65
2022/04/26 12:20:55;;;;;;;312.08;181.00;;;;;;;;;;4954049;28;20213;-67
2022/04/26 12:23:22;;;;;;;322.42;182.50;;;;;;;;;;4958485;28;20218;-68
2022/04/26 12:26:05;;;;;;;492.17;254.20;;;;;;;;;;4957009;28;20276;-67
2022/04/26 12:28:31;;;;;;;362.52;197.95;;;;;;;;;;4958144;28;20318;-68
2022/04/26 12:30:57;;;;;;;384.77;206.05;;;;;;;;;;4936190;28;20222;-68
2022/04/26 12:33:34;;;;;;;411.77;214.63;;;;;;;;;;4951140;28;20187;-67
2022/04/26 12:36:05;;;;;;;412.83;208.88;;;;;;;;;;4957513;28;20179;-67
2022/04/26 12:38:31;;;;;;;354.63;183.05;;;;;;;;;;4951854;28;21212;-68
2022/04/26 12:41:01;;;;;;;404.13;204.90;;;;;;;;;;4952209;28;20573;-69
2022/04/26 12:43:28;;;;;;;376.02;193.98;;;;;;;;;;4956890;28;20479;-67
2022/04/26 12:45:58;;;;;;;337.33;179.88;;;;;;;;;;4956512;28;20213;-68
2022/04/26 12:51:17;;;;;;;526.22;267.17;;;;;;;;;;4948607;28;20226;-67
2022/04/26 12:53:43;;;;;;;323.10;168.40;;;;;;;;;;4953829;28;20214;-67
2022/04/26 12:56:10;;;;;;;418.77;218.82;;;;;;;;;;4945344;28;20941;-68
2022/04/26 12:58:39;;;;;;;349.27;184.57;;;;;;;;;;4952936;28;20329;-68
2022/04/26 13:01:06;;;;;;;405.23;214.35;;;;;;;;;;4951307;28;20221;-67
2022/04/26 13:03:33;;;;;;;353.17;199.93;;;;;;;;;;4954346;28;20221;-67
2022/04/26 13:06:11;;;;;;;371.67;195.52;;;;;;;;;;4958386;28;20237;-67
2022/04/26 13:08:38;;;;;;;301.60;163.25;;;;;;;;;;4959279;28;20229;-68
2022/04/26 13:11:04;;;;;;;334.45;186.63;;;;;;;;;;4956184;28;20274;-66
2022/04/26 13:13:30;;;;;;;307.17;178.27;;;;;;;;;;4955211;28;20210;-68
2022/04/26 13:15:56;;;;;;;357.08;192.45;;;;;;;;;;4938404;28;20779;-67
2022/04/26 13:18:22;;;;;;;394.17;211.35;;;;;;;;;;4950155;28;20291;-67
2022/04/26 13:20:49;;;;;;;364.40;203.52;;;;;;;;;;4942123;28;20219;-68
2022/04/26 13:23:16;;;;;;;314.17;178.40;;;;;;;;;;4955935;28;20214;-68
2022/04/26 13:25:42;;;;;;;313.98;176.30;;;;;;;;;;4948990;28;20565;-68
2022/04/26 13:28:08;;;;;;;384.15;202.48;;;;;;;;;;4945536;28;20232;-68
2022/04/26 13:30:34;;;;;;;259.35;154.07;;;;;;;;;;4958195;28;20202;-68
2022/04/26 13:33:00;;;;;;;382.38;204.07;;;;;;;;;;4947303;28;20183;-68
2022/04/26 13:35:27;;;;;;;334.95;176.20;;;;;;;;;;4954270;28;20774;-68
2022/04/26 13:37:54;;;;;;;266.92;153.60;;;;;;;;;;4957251;28;20540;-67
2022/04/26 13:40:21;;;;;;;286.10;161.70;;;;;;;;;;4956809;28;20250;-68
2022/04/26 13:42:47;;;;;;;316.45;173.35;;;;;;;;;;4952617;28;20210;-67
2022/04/26 13:45:13;;;;;;;295.02;165.15;;;;;;;;;;4951598;28;20197;-67
2022/04/26 13:47:40;;;;;;;306.50;171.30;;;;;;;;;;4932843;28;20237;-68
2022/04/26 13:50:06;;;;;;;320.48;184.80;;;;;;;;;;4946769;28;21268;-68
2022/04/26 13:52:32;;;;;;;246.52;144.52;;;;;;;;;;4954143;28;20222;-67
2022/04/26 13:54:58;;;;;;;334.35;182.88;;;;;;;;;;4941706;28;20293;-67
2022/04/26 13:57:24;;;;;;;298.77;166.45;;;;;;;;;;4959656;28;20652;-68
2022/04/26 13:59:50;;;;;;;248.57;146.90;;;;;;;;;;4956182;28;20266;-68
2022/04/26 14:02:18;;;;;;;390.48;208.55;;;;;;;;;;4956553;28;20951;-68
2022/04/26 14:04:44;;;;;;;303.30;172.65;;;;;;;;;;4938906;28;20942;-68
2022/04/26 14:07:10;;;;;;;356.25;204.95;;;;;;;;;;4930912;28;20221;-69
2022/04/26 14:09:36;;;;;;;251.77;172.35;;;;;;;;;;4953944;28;20190;-69
2022/04/26 14:12:03;;;;;;;341.27;210.63;;;;;;;;;;4951588;28;21192;-72
2022/04/26 14:22:44;;;;;;;308.08;244.98;;;;;;;;;;4951485;28;20217;-68
2022/04/26 14:25:11;;;;;;;157.35;116.72;;;;;;;;;;4956761;28;20302;-68
2022/04/26 14:27:42;;;;;;;137.70;126.55;;;;;;;;;;4956774;28;20198;-68
2022/04/26 14:30:09;;;;;;;224.52;196.77;;;;;;;;;;4956275;28;20730;-77
2022/04/26 14:32:35;;;;;;;169.07;153.57;;;;;;;;;;4961492;28;20217;-74
2022/04/26 14:35:01;;;;;;;224.88;175.93;;;;;;;;;;4939076;28;20585;-79
2022/04/26 14:37:27;;;;;;;219.80;152.75;;;;;;;;;;4953053;28;20218;-73
2022/04/26 14:39:53;;;;;;;207.38;119.95;;;;;;;;;;4954393;28;20210;-72
2022/04/26 14:42:20;;;;;;;133.25;81.72;;;;;;;;;;4951969;28;20206;-71
2022/04/26 14:44:46;;;;;;;388.90;163.68;;;;;;;;;;4935257;28;20927;-71
2022/04/26 14:47:13;;;;;;;124.47;63.05;;;;;;;;;;4956473;28;20217;-71
2022/04/26 14:49:39;;;;;;;55.33;35.83;;;;;;;;;;4942571;28;20207;-71
2022/04/26 14:52:06;;;;;;;209.25;70.57;;;;;;;;;;4953440;28;20292;-70
2022/04/26 14:54:32;;;;;;;126.47;41.22;;;;;;;;;;4956745;28;20192;-72
2022/04/26 14:56:58;;;;;;;157.30;55.28;;;;;;;;;;4953570;28;20186;-70
2022/04/26 14:59:25;;;;;;;112.72;32.95;;;;;;;;;;4951773;28;20214;-71
2022/04/26 15:01:51;;;;;;;272.75;72.68;;;;;;;;;;4951411;28;20305;-70
2022/04/26 15:04:17;;;;;;;138.50;39.05;;;;;;;;;;4950589;28;20206;-70
2022/04/26 15:06:44;;;;;;;136.18;34.92;;;;;;;;;;4953354;28;20585;-69
2022/04/26 15:17:27;;;;;;;141.57;35.60;;;;;;;;;;4954511;28;20222;-71
2022/04/26 15:19:53;;;;;;;70.70;18.35;;;;;;;;;;4955486;28;20210;-70
2022/04/26 15:22:19;;;;;;;65.97;16.75;;;;;;;;;;4959160;28;20221;-69
2022/04/26 15:24:46;;;;;;;117.00;28.63;;;;;;;;;;4954817;28;20233;-69
2022/04/26 15:27:13;;;;;;;124.97;31.60;;;;;;;;;;4961802;28;20186;-69
2022/04/26 15:29:39;;;;;;;109.22;27.13;;;;;;;;;;4960862;28;20201;-68
2022/04/26 15:32:06;;;;;;;255.65;64.38;;;;;;;;;;4958188;28;20762;-70
2022/04/26 15:34:32;;;;;;;86.40;21.15;;;;;;;;;;4964305;28;20244;-70
2022/04/26 15:36:58;;;;;;;139.50;34.65;;;;;;;;;;4953931;28;20579;-70
2022/04/26 15:39:25;;;;;;;90.75;21.48;;;;;;;;;;4954640;28;20183;-70
2022/04/26 15:41:51;;;;;;;131.45;32.47;;;;;;;;;;4958436;28;20244;-70
2022/04/26 15:44:17;;;;;;;103.53;26.58;;;;;;;;;;4961026;28;20219;-69
2022/04/26 15:46:43;;;;;;;122.43;32.20;;;;;;;;;;4958134;28;20229;-71
2022/04/26 15:49:10;;;;;;;147.63;39.75;;;;;;;;;;4954238;28;20222;-71
2022/04/26 15:51:36;;;;;;;150.85;43.85;;;;;;;;;;4956930;28;20206;-71
2022/04/26 15:54:02;;;;;;;234.10;70.45;;;;;;;;;;4956569;28;20179;-71
2022/04/26 15:56:28;;;;;;;251.88;75.95;;;;;;;;;;4947552;28;20226;-69
2022/04/26 15:58:54;;;;;;;97.90;31.17;;;;;;;;;;4959283;28;20264;-68
2022/04/26 16:01:21;;;;;;;191.00;61.42;;;;;;;;;;4952211;28;20229;-70
2022/04/26 16:03:47;;;;;;;91.68;31.98;;;;;;;;;;4957780;28;20237;-69
2022/04/26 16:06:13;;;;;;;137.80;42.67;;;;;;;;;;4957763;28;20679;-70
2022/04/26 16:08:39;;;;;;;92.80;28.08;;;;;;;;;;4957729;28;20248;-69
2022/04/26 16:20:28;;;;;;;103.63;27.95;;;;;;;;;;4957072;28;20279;-69
2022/04/26 16:22:08;;;;;;;153.98;42.75;;;;;;;;;;4956328;28;20816;-69
2022/04/26 16:24:40;;;;;;;88.85;22.95;;;;;;;;;;4953820;28;20700;-69
2022/04/26 16:27:07;;;;;;;136.00;37.25;;;;;;;;;;4958054;28;20595;-69
2022/04/26 16:29:33;;;;;;;115.25;29.25;;;;;;;;;;4943212;28;20265;-69
2022/04/26 16:31:59;;;;;;;199.95;50.63;;;;;;;;;;4956202;28;20229;-69
2022/04/26 16:34:25;;;;;;;107.13;26.40;;;;;;;;;;4954526;28;20210;-69
2022/04/26 16:36:51;;;;;;;53.35;14.13;;;;;;;;;;4953214;28;20224;-69
2022/04/26 16:39:17;;;;;;;102.15;25.25;;;;;;;;;;4961819;28;20243;-69
2022/04/26 16:41:43;;;;;;;133.65;32.13;;;;;;;;;;4952293;28;20886;-69
2022/04/26 16:44:09;;;;;;;114.93;27.33;;;;;;;;;;4952399;28;20210;-69
2022/04/26 16:46:35;;;;;;;90.10;21.90;;;;;;;;;;4943560;28;20224;-69
2022/04/26 16:49:02;;;;;;;159.27;42.58;;;;;;;;;;4955154;28;20225;-69
2022/04/26 16:51:30;;;;;;;138.65;31.83;;;;;;;;;;4952692;28;20253;-75
2022/04/26 16:53:56;;;;;;;127.80;30.30;;;;;;;;;;4953436;28;21099;-78
2022/04/26 16:56:22;;;;;;;112.60;26.52;;;;;;;;;;4958081;28;20226;-71
2022/04/26 16:58:48;;;;;;;109.55;27.50;;;;;;;;;;4955196;28;20237;-72
2022/04/26 17:01:14;;;;;;;98.47;24.60;;;;;;;;;;4955239;28;20241;-76
2022/04/26 17:03:39;;;;;;;59.67;14.38;;;;;;;;;;4930295;28;20215;-67
2022/04/26 17:06:05;;;;;;;152.82;36.20;;;;;;;;;;4960238;28;20194;-68
2022/04/26 17:08:31;;;;;;;56.33;13.15;;;;;;;;;;4961015;28;20306;-68
2022/04/26 17:11:42;;;;;;;144.05;35.83;;;;;;;;;;4954708;28;20234;-67
2022/04/26 17:13:44;;;;;;;89.00;20.15;;;;;;;;;;4951818;28;20241;-68
2022/04/26 17:16:10;;;;;;;123.28;28.90;;;;;;;;;;4956328;28;20242;-69
2022/04/26 17:18:36;;;;;;;68.47;15.60;;;;;;;;;;4956870;28;20226;-67
2022/04/26 17:21:02;;;;;;;88.07;24.13;;;;;;;;;;4958957;28;20284;-68
2022/04/26 17:23:28;;;;;;;37.90;9.68;;;;;;;;;;4966141;28;20229;-68
2022/04/26 17:25:54;;;;;;;55.15;12.48;;;;;;;;;;4964632;28;20218;-68
2022/04/26 17:28:23;;;;;;;48.92;11.82;;;;;;;;;;4960762;28;20361;-68
2022/04/26 17:30:50;;;;;;;66.72;14.93;;;;;;;;;;4959239;28;20214;-67
2022/04/26 17:33:16;;;;;;;79.68;17.92;;;;;;;;;;4963320;28;20285;-69
2022/04/26 17:35:42;;;;;;;77.47;17.02;;;;;;;;;;4943087;28;20222;-68
2022/04/26 17:38:08;;;;;;;128.65;28.08;;;;;;;;;;4956772;28;20213;-68
2022/04/26 17:40:34;;;;;;;83.18;17.67;;;;;;;;;;4964552;28;20234;-67
2022/04/26 17:43:02;;;;;;;109.28;24.77;;;;;;;;;;4965966;28;20218;-67
2022/04/26 17:45:29;;;;;;;87.85;17.77;;;;;;;;;;4962965;28;20208;-67
2022/04/26 17:47:55;;;;;;;61.75;12.73;;;;;;;;;;4959772;28;20194;-68
2022/04/26 17:50:21;;;;;;;101.60;20.15;;;;;;;;;;4954426;28;20224;-68
2022/04/26 17:58:24;;;;;;;88.93;17.70;;;;;;;;;;4948988;28;20213;-68
2022/04/26 18:00:50;;;;;;;68.55;13.35;;;;;;;;;;4964128;28;20718;-68
2022/04/26 18:03:16;;;;;;;63.70;12.40;;;;;;;;;;4956280;28;20194;-67
2022/04/26 18:05:42;;;;;;;114.95;21.73;;;;;;;;;;4959499;28;20221;-67
2022/04/26 18:08:08;;;;;;;178.38;35.97;;;;;;;;;;4938080;28;20221;-67
2022/04/26 18:10:34;;;;;;;122.47;28.13;;;;;;;;;;4957594;28;20210;-67
2022/04/26 18:13:00;;;;;;;163.65;92.63;;;;;;;;;;4951511;28;20257;-67
2022/04/26 18:15:26;;;;;;;96.90;47.85;;;;;;;;;;4959950;28;20249;-67
2022/04/26 18:17:52;;;;;;;99.43;51.85;;;;;;;;;;4958773;28;20194;-68
2022/04/26 18:20:20;;;;;;;57.20;24.95;;;;;;;;;;4959609;28;20218;-67
2022/04/26 18:22:46;;;;;;;69.93;26.42;;;;;;;;;;4957388;28;20280;-67
2022/04/26 18:25:11;;;;;;;151.95;84.28;;;;;;;;;;4962212;28;20226;-67
2022/04/26 18:27:39;;;;;;;175.67;114.87;;;;;;;;;;4960301;28;20220;-67
2022/04/26 18:30:05;;;;;;;237.73;139.43;;;;;;;;;;4957310;28;20244;-67
2022/04/26 18:32:32;;;;;;;158.07;110.53;;;;;;;;;;4956841;28;20226;-67
2022/04/26 18:34:58;;;;;;;156.20;105.03;;;;;;;;;;4960293;28;20245;-66
2022/04/26 18:37:24;;;;;;;145.43;97.40;;;;;;;;;;4954508;28;20309;-67